createdAt,value
2022-12-11T00:01:52.801Z,78.52
2022-12-11T00:04:16.494Z,78.57
2022-12-11T00:06:42.379Z,79.57
2022-12-11T00:09:06.093Z,78.78
2022-12-11T00:11:29.702Z,79.67
2022-12-11T00:13:53.357Z,79.30
2022-12-11T00:16:18.774Z,79.22
2022-12-11T00:18:44.181Z,79.36
2022-12-11T00:21:10.013Z,78.89
2022-12-11T00:23:36.710Z,78.69
2022-12-11T00:26:00.348Z,80.58
2022-12-11T00:28:24.900Z,79.44
2022-12-11T00:30:48.996Z,79.27
2022-12-11T00:33:15.054Z,80.67
2022-12-11T00:35:40.861Z,80.38
2022-12-11T00:38:04.511Z,80.30
2022-12-11T00:40:29.570Z,80.25
2022-12-11T00:42:53.341Z,80.50
2022-12-11T00:45:17.201Z,80.90
2022-12-11T00:47:40.902Z,81.52
2022-12-11T00:50:04.919Z,80.90
2022-12-11T00:52:28.559Z,80.49
2022-12-11T00:54:52.178Z,80.22
2022-12-11T00:57:17.239Z,80.14
2022-12-11T00:59:40.984Z,80.60
2022-12-11T01:02:04.725Z,80.08
2022-12-11T01:04:28.362Z,80.75
2022-12-11T01:06:52.012Z,80.20
2022-12-11T01:09:32.887Z,80.40
2022-12-11T01:11:56.531Z,80.32
2022-12-11T01:14:21.553Z,80.11
2022-12-11T01:16:45.256Z,80.33
2022-12-11T01:19:09.009Z,80.14
2022-12-11T01:21:32.698Z,80.11
2022-12-11T01:23:56.319Z,80.27
2022-12-11T01:26:20.485Z,80.21
2022-12-11T01:28:44.704Z,80.37
2022-12-11T01:31:12.472Z,81.23
2022-12-11T01:33:36.079Z,81.80
2022-12-11T01:35:59.718Z,81.65
2022-12-11T01:38:23.394Z,81.30
2022-12-11T01:40:53.822Z,81.08
2022-12-11T01:43:17.492Z,80.31
2022-12-11T01:45:44.804Z,80.92
2022-12-11T01:48:13.944Z,80.48
2022-12-11T01:50:43.786Z,80.85
2022-12-11T01:53:11.960Z,80.62
2022-12-11T01:55:36.175Z,81.09
2022-12-11T01:58:00.276Z,81.14
2022-12-11T02:00:24.230Z,81.38
2022-12-11T02:02:47.970Z,80.97
2022-12-11T02:05:13.777Z,81.63
2022-12-11T02:07:45.004Z,80.53
2022-12-11T02:10:12.157Z,80.69
2022-12-11T02:12:46.268Z,80.65
2022-12-11T02:15:18.870Z,81.03
2022-12-11T02:17:48.986Z,80.23
2022-12-11T02:20:21.249Z,81.04
2022-12-11T02:23:23.008Z,80.74
2022-12-11T02:25:57.649Z,80.67
2022-12-11T02:28:27.383Z,79.80
2022-12-11T02:30:56.765Z,80.52
2022-12-11T02:33:37.277Z,80.22
2022-12-11T02:36:02.190Z,80.27
2022-12-11T02:38:32.562Z,80.36
2022-12-11T02:40:57.909Z,80.55
2022-12-11T02:43:25.228Z,80.96
2022-12-11T02:45:51.310Z,81.12
2022-12-11T02:48:17.109Z,80.49
2022-12-11T02:50:45.947Z,81.50
2022-12-11T02:53:12.343Z,81.25
2022-12-11T02:55:39.471Z,81.34
2022-12-11T02:58:08.516Z,81.21
2022-12-11T03:00:34.042Z,80.88
2022-12-11T03:02:58.840Z,81.23
2022-12-11T03:05:22.710Z,81.35
2022-12-11T03:07:46.605Z,81.38
2022-12-11T03:10:15.799Z,81.85
2022-12-11T03:12:43.610Z,81.25
2022-12-11T03:15:11.417Z,81.71
2022-12-11T03:17:50.580Z,81.64
2022-12-11T03:20:22.812Z,81.74
2022-12-11T03:22:54.009Z,81.50
2022-12-11T03:25:23.110Z,82.88
2022-12-11T03:27:52.091Z,82.01
2022-12-11T03:30:20.002Z,82.26
2022-12-11T03:32:53.247Z,82.19
2022-12-11T03:35:23.297Z,81.83
2022-12-11T03:37:49.596Z,81.14
2022-12-11T03:40:17.496Z,81.58
2022-12-11T03:42:43.527Z,82.08
2022-12-11T03:45:10.169Z,81.19
2022-12-11T03:47:34.988Z,81.46
2022-12-11T03:50:01.356Z,81.51
2022-12-11T03:52:27.568Z,81.92
2022-12-11T03:54:52.725Z,81.67
2022-12-11T03:57:20.797Z,82.34
2022-12-11T03:59:44.495Z,81.85
2022-12-11T04:02:11.288Z,81.75
2022-12-11T04:04:34.996Z,82.79
2022-12-11T04:07:00.119Z,82.74
2022-12-11T04:09:23.682Z,83.71
2022-12-11T04:11:47.352Z,83.24
2022-12-11T04:14:31.219Z,83.47
2022-12-11T04:16:55.448Z,83.82
2022-12-11T04:19:37.110Z,83.48
2022-12-11T04:22:28.116Z,82.56
2022-12-11T04:24:51.967Z,83.73
2022-12-11T04:27:35.636Z,83.06
2022-12-11T04:29:59.309Z,83.25
2022-12-11T04:32:22.918Z,84.05
2022-12-11T04:34:46.597Z,83.51
2022-12-11T04:37:11.558Z,83.35
2022-12-11T04:39:35.217Z,83.29
2022-12-11T04:41:58.863Z,82.76
2022-12-11T04:44:22.485Z,82.32
2022-12-11T04:46:46.107Z,82.64
2022-12-11T04:49:10.206Z,82.89
2022-12-11T04:51:34.343Z,83.09
2022-12-11T04:53:59.937Z,83.52
2022-12-11T04:56:24.135Z,83.36
2022-12-11T04:58:48.956Z,82.62
2022-12-11T05:01:14.613Z,83.96
2022-12-11T05:03:38.809Z,83.19
2022-12-11T05:06:02.467Z,83.46
2022-12-11T05:08:26.143Z,83.33
2022-12-11T05:11:02.027Z,83.77
2022-12-11T05:13:25.841Z,83.74
2022-12-11T05:15:49.439Z,84.26
2022-12-11T05:18:13.107Z,84.18
2022-12-11T05:20:36.699Z,84.65
2022-12-11T05:23:00.301Z,84.39
2022-12-11T05:25:23.912Z,84.49
2022-12-11T05:27:48.938Z,84.88
2022-12-11T05:30:13.242Z,84.36
2022-12-11T05:32:36.899Z,83.80
2022-12-11T05:35:00.470Z,84.06
2022-12-11T05:37:24.352Z,83.99
2022-12-11T05:39:47.972Z,84.55
2022-12-11T05:42:11.594Z,83.80
2022-12-11T05:44:36.637Z,83.21
2022-12-11T05:47:00.365Z,83.30
2022-12-11T05:49:30.555Z,84.59
2022-12-11T05:51:54.571Z,83.05
2022-12-11T05:54:18.982Z,83.35
2022-12-11T05:56:42.707Z,82.92
2022-12-11T05:59:08.059Z,83.26
2022-12-11T06:01:37.302Z,82.59
2022-12-11T06:04:01.536Z,81.79
2022-12-11T06:06:26.528Z,82.28
2022-12-11T06:08:52.345Z,80.64
2022-12-11T06:11:20.881Z,80.86
2022-12-11T06:13:47.402Z,79.83
2022-12-11T06:16:11.335Z,78.67
2022-12-11T06:18:39.388Z,78.42
2022-12-11T06:21:02.986Z,79.32
2022-12-11T06:23:26.729Z,77.64
2022-12-11T06:25:50.292Z,77.25
2022-12-11T06:28:14.001Z,77.92
2022-12-11T06:30:39.478Z,77.92
2022-12-11T06:33:03.348Z,77.41
2022-12-11T06:35:28.430Z,76.39
2022-12-11T06:37:52.066Z,76.88
2022-12-11T06:40:15.857Z,76.71
2022-12-11T06:42:39.988Z,76.89
2022-12-11T06:45:04.032Z,77.01
2022-12-11T06:47:28.268Z,77.15
2022-12-11T06:49:51.927Z,77.38
2022-12-11T06:52:18.752Z,76.20
2022-12-11T06:54:42.427Z,77.08
2022-12-11T06:57:06.037Z,77.14
2022-12-11T06:59:29.685Z,76.51
2022-12-11T07:01:53.384Z,77.70
2022-12-11T07:04:17.029Z,77.55
2022-12-11T07:06:40.782Z,76.83
2022-12-11T07:09:08.010Z,76.39
2022-12-11T07:11:31.778Z,76.18
2022-12-11T07:13:55.511Z,76.86
2022-12-11T07:16:20.166Z,75.98
2022-12-11T07:18:47.852Z,77.41
2022-12-11T07:21:14.101Z,77.31
2022-12-11T07:23:37.763Z,76.67
2022-12-11T07:26:06.336Z,76.37
2022-12-11T07:28:29.960Z,77.33
2022-12-11T07:30:53.656Z,77.17
2022-12-11T07:33:17.295Z,77.97
2022-12-11T07:35:41.017Z,78.34
2022-12-11T07:38:04.687Z,77.71
2022-12-11T07:40:28.694Z,78.33
2022-12-11T07:42:53.751Z,78.69
2022-12-11T07:45:17.546Z,78.05
2022-12-11T07:47:41.118Z,78.25
2022-12-11T07:50:05.217Z,78.19
2022-12-11T07:52:28.812Z,77.15
2022-12-11T07:54:52.481Z,77.97
2022-12-11T07:57:16.101Z,77.97
2022-12-11T07:59:41.746Z,77.79
2022-12-11T08:02:05.523Z,78.20
2022-12-11T08:04:29.287Z,77.43
2022-12-11T08:06:52.860Z,77.83
2022-12-11T08:09:20.924Z,78.68
2022-12-11T08:11:45.043Z,79.51
2022-12-11T08:14:09.560Z,77.61
2022-12-11T08:16:34.604Z,76.68
2022-12-11T08:19:00.171Z,77.19
2022-12-11T08:21:25.393Z,77.02
2022-12-11T08:23:49.464Z,76.46
2022-12-11T08:26:16.084Z,76.96
2022-12-11T08:28:39.859Z,76.89
2022-12-11T08:31:06.151Z,76.55
2022-12-11T08:33:31.262Z,76.55
2022-12-11T08:35:54.917Z,76.43
2022-12-11T08:38:23.706Z,77.01
2022-12-11T08:40:49.039Z,77.87
2022-12-11T08:43:12.657Z,78.56
2022-12-11T08:45:36.375Z,77.90
2022-12-11T08:48:00.599Z,77.87
2022-12-11T08:50:25.681Z,77.02
2022-12-11T08:52:49.285Z,77.38
2022-12-11T08:55:13.630Z,77.77
2022-12-11T08:57:39.854Z,78.04
2022-12-11T09:00:03.717Z,78.17
2022-12-11T09:02:27.404Z,78.08
2022-12-11T09:04:51.098Z,77.14
2022-12-11T09:07:16.081Z,77.51
2022-12-11T09:09:39.970Z,78.04
2022-12-11T09:12:04.659Z,77.43
2022-12-11T09:14:28.387Z,77.88
2022-12-11T09:16:52.037Z,77.59
2022-12-11T09:19:17.870Z,77.84
2022-12-11T09:21:42.842Z,78.00
2022-12-11T09:24:10.327Z,78.34
2022-12-11T09:26:34.252Z,78.44
2022-12-11T09:28:58.618Z,78.95
2022-12-11T09:31:25.074Z,78.43
2022-12-11T09:33:48.769Z,78.21
2022-12-11T09:36:13.518Z,78.05
2022-12-11T09:38:37.589Z,77.67
2022-12-11T09:41:02.646Z,78.16
2022-12-11T09:43:38.967Z,78.17
2022-12-11T09:46:08.556Z,78.02
2022-12-11T09:48:35.191Z,78.56
2022-12-11T09:50:59.064Z,78.14
2022-12-11T09:53:34.096Z,77.51
2022-12-11T09:56:07.812Z,77.55
2022-12-11T09:58:41.353Z,77.95
2022-12-11T10:01:11.289Z,77.43
2022-12-11T10:03:59.352Z,77.48
2022-12-11T10:06:27.142Z,76.69
2022-12-11T10:09:05.139Z,77.00
2022-12-11T10:11:56.363Z,77.70
2022-12-11T10:14:31.398Z,77.43
2022-12-11T10:17:01.259Z,77.10
2022-12-11T10:19:29.160Z,77.34
2022-12-11T10:21:54.014Z,78.05
2022-12-11T10:24:57.938Z,77.30
2022-12-11T10:27:21.316Z,77.53
2022-12-11T10:29:45.063Z,77.05
2022-12-11T10:32:24.605Z,77.77
2022-12-11T10:34:53.394Z,76.79
2022-12-11T10:37:17.064Z,77.62
2022-12-11T10:39:40.766Z,77.96
2022-12-11T10:42:17.714Z,78.17
2022-12-11T10:44:41.409Z,78.32
2022-12-11T10:47:10.483Z,77.69
2022-12-11T10:49:37.177Z,77.92
2022-12-11T10:52:02.209Z,77.91
2022-12-11T10:54:38.109Z,77.61
2022-12-11T10:57:04.830Z,77.86
2022-12-11T10:59:36.661Z,76.68
2022-12-11T11:02:00.505Z,76.99
2022-12-11T11:04:31.721Z,76.75
2022-12-11T11:07:04.790Z,77.11
2022-12-11T11:09:32.940Z,77.66
2022-12-11T11:11:56.563Z,77.09
2022-12-11T11:14:22.988Z,75.72
2022-12-11T11:16:50.134Z,76.27
2022-12-11T11:19:23.314Z,76.03
2022-12-11T11:21:52.760Z,76.02
2022-12-11T11:24:30.515Z,75.19
2022-12-11T11:27:12.943Z,75.62
2022-12-11T11:29:38.196Z,75.05
2022-12-11T11:32:17.340Z,75.40
2022-12-11T11:34:41.033Z,75.70
2022-12-11T11:37:06.047Z,76.83
2022-12-11T11:39:37.245Z,75.11
2022-12-11T11:42:07.945Z,75.93
2022-12-11T11:44:38.360Z,75.54
2022-12-11T11:47:12.248Z,74.39
2022-12-11T11:49:50.989Z,75.54
2022-12-11T11:52:25.306Z,75.73
2022-12-11T11:54:54.374Z,75.32
2022-12-11T11:57:24.574Z,75.29
2022-12-11T11:59:52.956Z,75.11
2022-12-11T12:02:19.977Z,75.72
2022-12-11T12:04:44.250Z,75.74
2022-12-11T12:07:28.539Z,75.61
2022-12-11T12:10:01.492Z,75.34
2022-12-11T12:12:41.111Z,75.55
2022-12-11T12:15:31.440Z,74.87
2022-12-11T12:17:59.953Z,75.31
2022-12-11T12:20:40.172Z,76.11
2022-12-11T12:23:30.742Z,76.27
2022-12-11T12:26:06.838Z,76.55
2022-12-11T12:28:42.500Z,76.96
2022-12-11T12:31:18.500Z,75.98
2022-12-11T12:33:55.357Z,74.89
2022-12-11T12:36:29.066Z,75.46
2022-12-11T12:38:56.416Z,75.66
2022-12-11T12:41:26.286Z,74.92
2022-12-11T12:44:05.634Z,75.44
2022-12-11T12:46:44.818Z,75.46
2022-12-11T12:49:16.698Z,74.78
2022-12-11T12:51:41.041Z,75.06
2022-12-11T12:54:12.298Z,75.52
2022-12-11T12:56:38.318Z,75.25
2022-12-11T12:59:01.918Z,75.50
2022-12-11T13:01:28.815Z,75.71
2022-12-11T13:03:57.129Z,74.37
2022-12-11T13:06:34.973Z,76.82
2022-12-11T13:08:59.342Z,76.00
2022-12-11T13:11:32.562Z,76.26
2022-12-11T13:14:07.271Z,77.04
2022-12-11T13:16:38.515Z,75.90
2022-12-11T13:19:03.395Z,77.12
2022-12-11T13:21:32.888Z,77.92
2022-12-11T13:23:56.994Z,77.29
2022-12-11T13:26:31.253Z,76.61
2022-12-11T13:28:54.968Z,76.68
2022-12-11T13:31:36.124Z,76.53
2022-12-11T13:34:15.189Z,76.60
2022-12-11T13:36:41.341Z,76.20
2022-12-11T13:39:10.953Z,76.38
2022-12-11T13:41:38.272Z,76.31
2022-12-11T13:44:02.007Z,76.11
2022-12-11T13:46:29.099Z,75.68
2022-12-11T13:48:57.233Z,76.85
2022-12-11T13:51:23.445Z,76.67
2022-12-11T13:53:48.871Z,75.61
2022-12-11T13:56:20.190Z,76.40
2022-12-11T13:58:43.963Z,75.57
2022-12-11T14:01:12.046Z,75.94
2022-12-11T14:03:36.812Z,77.34
2022-12-11T14:06:00.955Z,77.46
2022-12-11T14:08:29.820Z,77.26
2022-12-11T14:10:55.756Z,77.05
2022-12-11T14:13:24.073Z,76.33
2022-12-11T14:15:48.452Z,76.25
2022-12-11T14:18:19.926Z,77.03
2022-12-11T14:20:44.457Z,77.25
2022-12-11T14:23:08.432Z,76.49
2022-12-11T14:25:32.284Z,77.23
2022-12-11T14:27:58.404Z,77.44
2022-12-11T14:30:24.258Z,77.49
2022-12-11T14:32:48.176Z,77.10
2022-12-11T14:35:25.997Z,76.76
2022-12-11T14:37:50.036Z,76.75
2022-12-11T14:40:20.368Z,76.91
2022-12-11T14:42:49.491Z,76.16
2022-12-11T14:45:22.307Z,76.76
2022-12-11T14:47:46.810Z,78.08
2022-12-11T14:50:19.869Z,77.72
2022-12-11T14:52:48.407Z,77.62
2022-12-11T14:55:17.828Z,76.55
2022-12-11T14:57:45.122Z,76.96
2022-12-11T15:00:11.091Z,76.78
2022-12-11T15:02:38.240Z,77.11
2022-12-11T15:05:16.084Z,77.23
2022-12-11T15:07:40.483Z,77.26
2022-12-11T15:10:04.604Z,77.75
2022-12-11T15:12:28.426Z,77.30
2022-12-11T15:14:55.863Z,78.62
2022-12-11T15:17:20.106Z,77.59
2022-12-11T15:19:53.376Z,77.56
2022-12-11T15:22:18.410Z,77.27
2022-12-11T15:24:46.461Z,77.47
2022-12-11T15:27:27.283Z,77.69
2022-12-11T15:29:50.981Z,77.05
2022-12-11T15:32:21.071Z,78.21
2022-12-11T15:34:49.256Z,78.03
2022-12-11T15:37:21.118Z,77.71
2022-12-11T15:39:44.762Z,77.56
2022-12-11T15:42:08.543Z,78.24
2022-12-11T15:44:32.258Z,78.47
2022-12-11T15:46:55.810Z,78.38
2022-12-11T15:49:24.064Z,78.80
2022-12-11T15:51:49.068Z,78.58
2022-12-11T15:54:12.926Z,77.73
2022-12-11T15:56:36.980Z,78.05
2022-12-11T15:59:06.819Z,77.83
2022-12-11T16:01:30.451Z,78.35
2022-12-11T16:03:54.165Z,77.43
2022-12-11T16:06:17.815Z,79.07
2022-12-11T16:08:43.675Z,78.58
2022-12-11T16:11:07.563Z,79.42
2022-12-11T16:13:31.233Z,78.54
2022-12-11T16:15:54.987Z,79.64
2022-12-11T16:18:21.773Z,79.27
2022-12-11T16:20:46.578Z,78.85
2022-12-11T16:23:11.135Z,79.22
2022-12-11T16:25:39.086Z,79.77
2022-12-11T16:28:03.518Z,80.37
2022-12-11T16:30:28.739Z,79.08
2022-12-11T16:32:52.703Z,78.45
2022-12-11T16:35:16.990Z,79.65
2022-12-11T16:37:40.661Z,79.52
2022-12-11T16:40:06.545Z,79.56
2022-12-11T16:42:31.652Z,78.82
2022-12-11T16:44:55.260Z,79.13
2022-12-11T16:47:18.977Z,81.31
2022-12-11T16:49:43.346Z,80.00
2022-12-11T16:52:07.034Z,80.51
2022-12-11T16:54:30.754Z,80.04
2022-12-11T16:56:54.362Z,80.31
2022-12-11T16:59:19.358Z,80.61
2022-12-11T17:01:43.084Z,79.86
2022-12-11T17:04:07.219Z,80.48
2022-12-11T17:06:30.886Z,80.73
2022-12-11T17:08:54.661Z,81.71
2022-12-11T17:11:20.658Z,81.79
2022-12-11T17:13:44.916Z,82.26
2022-12-11T17:16:14.091Z,83.59
2022-12-11T17:18:38.081Z,82.04
2022-12-11T17:21:07.081Z,82.27
2022-12-11T17:23:30.843Z,81.70
2022-12-11T17:25:54.465Z,82.18
2022-12-11T17:28:18.218Z,81.23
2022-12-11T17:30:43.406Z,80.60
2022-12-11T17:33:08.740Z,82.12
2022-12-11T17:35:34.159Z,80.73
2022-12-11T17:37:57.775Z,82.38
2022-12-11T17:40:23.022Z,82.21
2022-12-11T17:42:47.570Z,81.25
2022-12-11T17:45:12.430Z,81.50
2022-12-11T17:47:36.243Z,81.91
2022-12-11T17:50:01.244Z,81.91
2022-12-11T17:52:28.376Z,81.19
2022-12-11T17:54:54.532Z,81.82
2022-12-11T17:57:18.128Z,82.50
2022-12-11T17:59:41.759Z,81.75
2022-12-11T18:02:05.478Z,82.00
2022-12-11T18:04:29.173Z,82.16
2022-12-11T18:06:54.215Z,82.78
2022-12-11T18:09:18.009Z,82.43
2022-12-11T18:11:41.601Z,82.16
2022-12-11T18:14:05.340Z,82.75
2022-12-11T18:16:32.298Z,82.10
2022-12-11T18:18:56.527Z,82.27
2022-12-11T18:21:23.503Z,82.71
2022-12-11T18:23:50.004Z,82.57
2022-12-11T18:26:14.658Z,82.21
2022-12-11T18:28:38.475Z,82.26
2022-12-11T18:31:03.151Z,83.69
2022-12-11T18:33:26.867Z,84.64
2022-12-11T18:35:51.745Z,83.64
2022-12-11T18:38:15.414Z,84.88
2022-12-11T18:40:41.156Z,84.59
2022-12-11T18:43:04.907Z,85.84
2022-12-11T18:45:28.507Z,85.10
2022-12-11T18:47:52.797Z,84.39
2022-12-11T18:50:16.394Z,83.24
2022-12-11T18:52:40.015Z,84.71
2022-12-11T18:55:04.915Z,84.91
2022-12-11T18:57:29.970Z,84.65
2022-12-11T18:59:54.331Z,84.87
2022-12-11T19:02:18.013Z,84.26
2022-12-11T19:04:41.696Z,83.84
2022-12-11T19:07:05.386Z,83.97
2022-12-11T19:09:32.680Z,83.76
2022-12-11T19:11:59.047Z,84.02
2022-12-11T19:14:24.122Z,84.04
2022-12-11T19:16:47.984Z,84.72
2022-12-11T19:19:15.448Z,85.27
2022-12-11T19:21:39.970Z,85.35
2022-12-11T19:24:03.585Z,83.87
2022-12-11T19:26:27.282Z,84.27
2022-12-11T19:28:52.738Z,83.45
2022-12-11T19:31:20.740Z,84.27
2022-12-11T19:33:46.747Z,83.42
2022-12-11T19:36:13.337Z,84.78
2022-12-11T19:38:37.468Z,83.24
2022-12-11T19:41:01.169Z,83.33
2022-12-11T19:43:24.839Z,84.02
2022-12-11T19:45:48.501Z,84.16
2022-12-11T19:48:13.552Z,84.26
2022-12-11T19:50:37.716Z,84.26
2022-12-11T19:53:01.331Z,83.39
2022-12-11T19:55:24.988Z,84.18
2022-12-11T19:57:48.683Z,84.18
2022-12-11T20:00:13.689Z,84.02
2022-12-11T20:02:37.225Z,85.23
2022-12-11T20:05:02.279Z,86.16
2022-12-11T20:07:30.472Z,85.38
2022-12-11T20:09:54.465Z,84.14
2022-12-11T20:12:18.142Z,85.30
2022-12-11T20:14:41.743Z,85.06
2022-12-11T20:17:12.481Z,84.40
2022-12-11T20:19:37.423Z,85.69
2022-12-11T20:22:02.518Z,86.12
2022-12-11T20:24:26.259Z,85.94
2022-12-11T20:26:50.062Z,85.86
2022-12-11T20:29:14.350Z,85.73
2022-12-11T20:31:38.687Z,84.91
2022-12-11T20:34:02.346Z,83.93
2022-12-11T20:36:26.760Z,84.60
2022-12-11T20:38:52.415Z,85.77
2022-12-11T20:41:19.099Z,83.91
2022-12-11T20:43:43.882Z,83.77
2022-12-11T20:46:08.091Z,84.45
2022-12-11T20:48:31.789Z,84.01
2022-12-11T20:50:55.549Z,84.36
2022-12-11T20:53:19.317Z,84.17
2022-12-11T20:55:45.183Z,84.73
2022-12-11T20:58:09.227Z,84.53
2022-12-11T21:00:32.838Z,84.41
2022-12-11T21:02:57.324Z,84.71
2022-12-11T21:05:21.201Z,85.09
2022-12-11T21:07:45.045Z,85.05
2022-12-11T21:10:09.813Z,84.88
2022-12-11T21:12:35.136Z,85.21
2022-12-11T21:14:58.719Z,84.78
2022-12-11T21:17:22.357Z,83.65
2022-12-11T21:19:45.964Z,84.50
2022-12-11T21:22:09.636Z,83.41
2022-12-11T21:24:33.275Z,83.14
2022-12-11T21:26:59.224Z,83.63
2022-12-11T21:29:25.761Z,84.24
2022-12-11T21:31:50.105Z,84.17
2022-12-11T21:34:14.069Z,84.37
2022-12-11T21:36:37.727Z,83.81
2022-12-11T21:39:02.560Z,85.22
2022-12-11T21:41:26.702Z,85.29
2022-12-11T21:45:06.972Z,84.74
2022-12-11T21:46:37.467Z,84.76
2022-12-11T21:49:01.358Z,84.88
2022-12-11T21:51:34.092Z,84.06
2022-12-11T21:53:59.862Z,85.08
2022-12-11T21:56:26.567Z,84.04
2022-12-11T21:58:51.750Z,85.16
2022-12-11T22:01:19.940Z,86.08
2022-12-11T22:03:45.107Z,86.39
2022-12-11T22:06:09.533Z,85.19
2022-12-11T22:08:33.161Z,86.13
2022-12-11T22:10:56.850Z,86.22
2022-12-11T22:13:20.693Z,85.15
2022-12-11T22:15:44.339Z,84.87
2022-12-11T22:18:08.166Z,85.02
2022-12-11T22:20:33.161Z,84.83
2022-12-11T22:22:56.836Z,85.88
2022-12-11T22:25:20.411Z,85.87
2022-12-11T22:27:44.178Z,85.98
2022-12-11T22:30:09.498Z,86.50
2022-12-11T22:32:33.251Z,85.34
2022-12-11T22:34:57.824Z,86.08
2022-12-11T22:37:22.924Z,86.25
2022-12-11T22:39:46.495Z,85.84
2022-12-11T22:42:10.220Z,86.30
2022-12-11T22:44:33.803Z,85.83
2022-12-11T22:46:57.465Z,86.40
2022-12-11T22:49:21.489Z,86.44
2022-12-11T22:51:45.131Z,85.90
2022-12-11T22:54:10.150Z,85.99
2022-12-11T22:56:33.869Z,85.73
2022-12-11T22:58:58.639Z,87.25
2022-12-11T23:01:24.656Z,86.74
2022-12-11T23:03:48.671Z,86.81
2022-12-11T23:06:15.334Z,86.75
2022-12-11T23:08:39.979Z,86.99
2022-12-11T23:11:12.228Z,87.45
2022-12-11T23:13:36.267Z,86.96
2022-12-11T23:15:59.886Z,87.21
2022-12-11T23:18:23.578Z,86.02
2022-12-11T23:20:47.185Z,85.71
2022-12-11T23:23:10.996Z,86.08
2022-12-11T23:25:34.548Z,86.81
2022-12-11T23:27:59.674Z,85.97
2022-12-11T23:30:24.023Z,85.33
2022-12-11T23:32:47.686Z,85.75
2022-12-11T23:35:11.751Z,85.83
2022-12-11T23:37:35.633Z,85.66
2022-12-11T23:40:00.883Z,86.09
2022-12-11T23:42:24.528Z,85.58
2022-12-11T23:44:49.509Z,84.64
2022-12-11T23:47:13.152Z,86.00
2022-12-11T23:49:36.841Z,85.29
2022-12-11T23:52:00.577Z,85.29
2022-12-11T23:54:24.226Z,86.13
2022-12-11T23:56:47.911Z,85.86
2022-12-11T23:59:13.897Z,84.89
